createdAt,value
2018-08-25T00:03:45.588Z,15.88
2018-08-25T00:09:40.580Z,15.13
2018-08-25T00:15:35.563Z,15.53
2018-08-25T00:21:30.572Z,16.13
2018-08-25T00:27:25.609Z,16.4
2018-08-25T00:33:20.642Z,15.83
2018-08-25T00:39:15.589Z,16.14
2018-08-25T00:45:10.590Z,14.99
2018-08-25T00:51:05.654Z,16.61
2018-08-25T00:57:00.591Z,16.33
2018-08-25T01:02:55.611Z,16.51
2018-08-25T01:08:50.652Z,16.11
2018-08-25T01:14:45.648Z,15.71
2018-08-25T01:20:40.662Z,16.75
2018-08-25T01:26:35.634Z,16.54
2018-08-25T01:32:30.605Z,15.11
2018-08-25T01:38:25.625Z,14.64
2018-08-25T01:44:20.654Z,15.81
2018-08-25T01:50:15.683Z,15.83
2018-08-25T01:56:10.644Z,15.67
2018-08-25T02:02:05.660Z,15.01
2018-08-25T02:08:00.677Z,16.53
2018-08-25T02:13:55.644Z,17.35
2018-08-25T02:19:50.643Z,16.58
2018-08-25T02:25:45.692Z,17.32
2018-08-25T02:31:40.669Z,15.94
2018-08-25T02:37:35.689Z,16.47
2018-08-25T02:43:30.686Z,16.8
2018-08-25T02:49:25.740Z,15.82
2018-08-25T02:55:20.698Z,17.33
2018-08-25T03:01:15.709Z,16.76
2018-08-25T03:07:10.666Z,16.15
2018-08-25T03:13:05.696Z,16.37
2018-08-25T03:19:00.692Z,17.78
2018-08-25T03:24:55.714Z,17.21
2018-08-25T03:30:50.715Z,16.5
2018-08-25T03:36:45.698Z,17.86
2018-08-25T03:42:40.679Z,16.85
2018-08-25T03:48:35.741Z,15.6
2018-08-25T03:54:30.702Z,16.49
2018-08-25T04:00:25.744Z,17.54
2018-08-25T04:06:20.705Z,17.44
2018-08-25T04:12:15.740Z,17.71
2018-08-25T04:18:10.744Z,18.28
2018-08-25T04:24:05.725Z,18.76
2018-08-25T04:30:00.763Z,19.43
2018-08-25T04:35:55.738Z,19.03
2018-08-25T04:41:50.726Z,18.62
2018-08-25T04:47:45.749Z,17.99
2018-08-25T04:53:40.774Z,17.36
2018-08-25T04:59:35.767Z,17.12
2018-08-25T05:05:30.762Z,18.36
2018-08-25T05:11:25.764Z,17.88
2018-08-25T05:17:20.762Z,18.12
2018-08-25T05:23:15.760Z,17.86
2018-08-25T05:29:10.766Z,17.43
2018-08-25T05:35:05.793Z,19.83
2018-08-25T05:41:00.801Z,131.69
2018-08-25T05:46:55.829Z,84.66
2018-08-25T05:52:50.772Z,55.28
2018-08-25T05:58:45.846Z,50.04
2018-08-25T06:04:40.792Z,46.05
2018-08-25T06:10:35.786Z,36.44
2018-08-25T06:16:30.838Z,26.17
2018-08-25T06:22:25.793Z,23.53
2018-08-25T06:28:20.844Z,23.21
2018-08-25T06:34:15.847Z,20.55
2018-08-25T06:40:10.813Z,21.64
2018-08-25T06:46:05.838Z,20.08
2018-08-25T06:52:00.814Z,20.14
2018-08-25T06:57:55.845Z,22.78
2018-08-25T07:03:50.850Z,23.96
2018-08-25T07:09:45.814Z,21.99
2018-08-25T07:15:40.867Z,20.82
2018-08-25T07:21:35.843Z,18.27
2018-08-25T07:27:30.847Z,17.68
2018-08-25T07:33:25.857Z,18.63
2018-08-25T07:39:20.842Z,18.09
2018-08-25T07:45:15.910Z,16.23
2018-08-25T07:51:10.871Z,17.02
2018-08-25T07:57:05.901Z,16.64
2018-08-25T08:03:00.868Z,15.9
2018-08-25T08:08:55.942Z,13.28
2018-08-25T08:14:50.895Z,12.86
2018-08-25T08:20:45.889Z,10.2
2018-08-25T08:26:40.893Z,9.43
2018-08-25T08:32:35.885Z,9.62
2018-08-25T08:38:30.904Z,10.07
2018-08-25T08:44:25.924Z,8.42
2018-08-25T08:50:20.991Z,8.38
2018-08-25T08:56:15.908Z,8.23
2018-08-25T09:02:10.965Z,8.92
2018-08-25T09:08:05.918Z,8.81
2018-08-25T09:14:00.904Z,8.98
2018-08-25T09:19:55.921Z,8.8
2018-08-25T09:25:50.922Z,8.91
2018-08-25T09:31:45.969Z,8.19
2018-08-25T09:37:40.927Z,8.77
2018-08-25T09:43:35.974Z,8.91
2018-08-25T09:49:30.925Z,7.46
2018-08-25T09:55:25.952Z,9.07
2018-08-25T10:01:20.930Z,8.28
2018-08-25T10:07:15.934Z,8.38
2018-08-25T10:13:10.995Z,8.53
2018-08-25T10:19:06.040Z,7.98
2018-08-25T10:25:00.986Z,8.17
2018-08-25T10:30:55.967Z,8.62
2018-08-25T10:36:51.025Z,9.06
2018-08-25T10:42:45.961Z,8.96
2018-08-25T10:48:40.972Z,8.7
2018-08-25T10:54:35.977Z,9.08
2018-08-25T11:00:31.109Z,8.93
2018-08-25T11:06:25.998Z,8.35
2018-08-25T11:12:21.018Z,8.59
2018-08-25T11:18:15.994Z,8.22
2018-08-25T11:24:10.994Z,8.45
2018-08-25T11:30:06.058Z,8.84
2018-08-25T11:36:01.034Z,8.66
2018-08-25T11:41:56.007Z,8.04
2018-08-25T11:47:51.018Z,8.12
2018-08-25T11:53:46.084Z,8.16
2018-08-25T11:59:41.014Z,8.2
2018-08-25T12:05:36.045Z,8.75
2018-08-25T12:11:31.060Z,8.09
2018-08-25T12:17:26.041Z,8.37
2018-08-25T12:23:21.029Z,8.78
2018-08-25T12:29:16.027Z,8.62
2018-08-25T12:35:11.108Z,7.99
2018-08-25T12:41:06.077Z,7.69
2018-08-25T12:47:01.048Z,7.66
2018-08-25T12:52:56.038Z,7.1
2018-08-25T12:58:51.072Z,7.37
2018-08-25T13:04:46.047Z,7.07
2018-08-25T13:10:41.104Z,7.43
2018-08-25T13:16:36.056Z,6.86
2018-08-25T13:22:31.063Z,6.33
2018-08-25T13:28:26.069Z,6.34
2018-08-25T13:34:21.067Z,5.86
2018-08-25T13:40:16.090Z,5.71
2018-08-25T13:46:11.110Z,5.57
2018-08-25T13:52:06.143Z,5.39
2018-08-25T13:58:01.118Z,5.98
2018-08-25T14:03:56.108Z,6.05
2018-08-25T14:09:51.116Z,5.75
2018-08-25T14:15:46.125Z,6.11
2018-08-25T14:21:41.103Z,6.07
2018-08-25T14:27:36.170Z,6.03
2018-08-25T14:33:31.121Z,6.49
2018-08-25T14:39:26.130Z,6.24
2018-08-25T14:45:21.151Z,5.89
2018-08-25T14:51:16.142Z,5.55
2018-08-25T14:57:11.128Z,5.77
2018-08-25T15:03:06.115Z,5.77
2018-08-25T15:09:01.131Z,5.57
2018-08-25T15:14:56.142Z,5.55
2018-08-25T15:20:51.174Z,5.52
2018-08-25T15:26:46.131Z,5.52
2018-08-25T15:32:41.156Z,5.28
2018-08-25T15:38:36.141Z,5.92
2018-08-25T15:44:31.147Z,5.6
2018-08-25T15:50:26.146Z,5.34
2018-08-25T15:56:21.170Z,6.45
2018-08-25T16:02:16.181Z,4.84
2018-08-25T16:08:11.179Z,5.08
2018-08-25T16:14:06.185Z,5.31
2018-08-25T16:20:01.374Z,4.73
2018-08-25T16:25:56.187Z,4.95
2018-08-25T16:31:51.176Z,4.48
2018-08-25T16:37:46.182Z,4.45
2018-08-25T16:43:41.198Z,5.16
2018-08-25T16:49:36.203Z,4.94
2018-08-25T16:55:31.199Z,4.11
2018-08-25T17:01:26.213Z,4.77
2018-08-25T17:07:21.225Z,5.74
2018-08-25T17:13:16.257Z,4.95
2018-08-25T17:19:11.225Z,5.39
2018-08-25T17:25:06.218Z,5.24
2018-08-25T17:31:01.217Z,5.48
2018-08-25T17:36:56.224Z,5.23
2018-08-25T17:42:51.235Z,5.09
2018-08-25T17:48:46.241Z,4.97
2018-08-25T17:54:41.235Z,6.58
2018-08-25T18:00:36.258Z,5.33
2018-08-25T18:06:31.275Z,4.4
2018-08-25T18:12:26.293Z,4.78
2018-08-25T18:18:21.268Z,12.33
2018-08-25T18:24:16.286Z,4.76
2018-08-25T18:30:11.279Z,4.54
2018-08-25T18:36:06.264Z,3.65
2018-08-25T18:42:01.270Z,4.79
2018-08-25T18:47:56.278Z,5.26
2018-08-25T18:53:51.307Z,4.38
2018-08-25T18:59:46.279Z,4.76
2018-08-25T19:05:41.285Z,7.05
2018-08-25T19:11:36.293Z,4.72
2018-08-25T19:17:31.302Z,4.04
2018-08-25T19:23:26.323Z,5.06
2018-08-25T19:29:21.299Z,4.15
2018-08-25T19:35:16.345Z,4.27
2018-08-25T19:41:11.368Z,4.75
2018-08-25T19:47:06.457Z,4.18
2018-08-25T19:53:01.336Z,4.26
2018-08-25T19:58:56.350Z,4.39
2018-08-25T20:04:51.340Z,4.56
2018-08-25T20:10:46.351Z,5.43
2018-08-25T20:16:41.343Z,4.73
2018-08-25T20:22:36.343Z,4.66
2018-08-25T20:28:31.358Z,4.77
2018-08-25T20:34:26.364Z,4.87
2018-08-25T20:40:21.342Z,4.05
2018-08-25T20:46:16.412Z,5.42
2018-08-25T20:52:11.396Z,4.57
2018-08-25T20:58:06.377Z,5.24
2018-08-25T21:04:01.388Z,4.9
2018-08-25T21:09:56.382Z,5.18
2018-08-25T21:15:51.431Z,4.95
2018-08-25T21:21:46.374Z,4.74
2018-08-25T21:27:41.373Z,4.77
2018-08-25T21:33:36.406Z,5.9
2018-08-25T21:39:31.385Z,5.22
2018-08-25T21:45:26.386Z,5.18
2018-08-25T21:51:21.388Z,5.21
2018-08-25T21:57:16.387Z,5.41
2018-08-25T22:03:11.396Z,5.1
2018-08-25T22:09:06.421Z,4.83
2018-08-25T22:15:01.402Z,5.44
2018-08-25T22:20:56.417Z,4.71
2018-08-25T22:26:51.467Z,5.28
2018-08-25T22:32:46.408Z,4.74
2018-08-25T22:38:41.423Z,4.72
2018-08-25T22:44:36.430Z,4.85
2018-08-25T22:50:31.405Z,4.86
2018-08-25T22:56:26.453Z,5.18
2018-08-25T23:02:21.445Z,5.08
2018-08-25T23:08:16.422Z,5.15
2018-08-25T23:14:11.421Z,5.35
2018-08-25T23:20:06.478Z,5.3
2018-08-25T23:26:01.463Z,5.12
2018-08-25T23:31:56.443Z,5.78
2018-08-25T23:37:51.451Z,4.94
2018-08-25T23:43:46.451Z,5.02
2018-08-25T23:49:41.476Z,5.14
2018-08-25T23:55:36.457Z,4.36
